Latest Weather Observations for Bendigo

IDV60801

Issued at 12:02 am EST Wednesday 4 May 2016 (issued every 30 minutes, with the page automatically refreshed every 10 minutes)

About weather observations | Map of weather stations | Latest weather observations for VIC | Other Formats
Station Details ID: 081123 Name: BENDIGO AIRPORT Lat: -36.74 Lon: 144.33 Height: 208.0 m
Data from the previous 72 hours. | See also: Recent months at Bendigo
Date/Time
EST
Temp
°C
App
Temp
°C
Dew
Point
Rel
Hum
%
Delta-T
°C
Wind Press
QNH
hPa
Press
MSL
hPa
Rain
since 9 am
mm
Dir
 
Spd
km/h
Gust
km/h
Spd
kts
Gust
kts
04/12:00am 10.7 7.7 7.6 81 1.5 WNW 13 19 7 10 1010.6 1010.7 0.8
 
Date/Time
EST
Temp
°C
App
Temp
°C
Dew
Point
Rel
Hum
%
Delta-T
°C
Wind Press
QNH
hPa
Press
MSL
hPa
Rain
since 9 am
mm
Dir
 
Spd
km/h
Gust
km/h
Spd
kts
Gust
kts
03/11:30pm 11.0 7.5 7.3 78 1.8 WNW 15 22 8 12 1010.1 1010.2 0.8
03/11:00pm 11.3 8.5 7.0 75 2.1 WNW 11 15 6 8 1010.0 1010.1 0.8
03/10:30pm 12.0 8.4 6.9 71 2.5 WNW 15 20 8 11 1009.7 1009.8 0.8
03/10:00pm 12.4 9.2 6.9 69 2.7 WNW 13 20 7 11 1009.4 1009.5 0.8
03/09:30pm 12.4 9.3 7.3 71 2.5 WNW 13 24 7 13 1009.1 1009.2 0.8
03/09:00pm 12.7 8.5 7.4 70 2.6 WNW 19 26 10 14 1008.8 1008.9 0.8
03/08:30pm 12.9 8.6 8.0 72 2.4 W 20 32 11 17 1008.5 1008.6 0.8
03/08:00pm 12.9 9.5 9.2 78 1.9 W 17 28 9 15 1008.1 1008.2 0.8
03/07:30pm 13.5 8.7 9.0 74 2.3 W 24 41 13 22 1007.7 1007.8 0.6
03/07:00pm 14.6 10.8 9.0 69 2.9 W 19 30 10 16 1007.0 1007.0 0.6
03/06:30pm 15.4 11.4 8.2 62 3.7 WNW 19 30 10 16 1006.2 1006.3 0.6
03/06:00pm 14.7 12.6 11.3 80 1.8 NW 13 19 7 10 1005.5 1005.6 0.6
03/05:30pm 14.8 13.4 12.3 85 1.4 NNW 11 19 6 10 1004.8 1004.9 0.6
03/05:00pm 15.1 13.1 12.6 85 1.4 NNW 15 24 8 13 1004.4 1004.5 0.6
03/04:30pm 15.0 12.7 12.9 87 1.2 NW 17 28 9 15 1004.2 1004.3 0.6
03/04:00pm 14.5 11.6 12.2 86 1.3 NW 19 28 10 15 1003.9 1004.0 0.6
03/03:53pm 14.2 10.7 12.1 87 1.1 NW 22 39 12 21 1003.7 1003.8 0.6
03/03:38pm 14.5 10.7 12.5 88 1.1 NW 24 35 13 19 1003.9 1004.0 0.4
03/03:30pm 14.6 10.5 12.6 88 1.1 NW 26 43 14 23 1004.0 1004.1 0.4
03/03:28pm 14.7 11.0 12.7 88 1.1 NW 24 37 13 20 1004.1 1004.2 0.4
03/03:27pm 14.7 10.6 12.7 88 1.1 NW 26 43 14 23 1004.0 1004.1 0.4
03/03:22pm 14.6 10.9 12.6 88 1.1 NW 24 37 13 20 1004.0 1004.1 0.4
03/03:12pm 14.4 10.7 12.6 89 1.0 NW 24 39 13 21 1003.8 1003.9 0.4
03/03:00pm 14.3 9.8 12.5 89 1.0 NW 28 44 15 24 1003.8 1003.9 0.4
03/02:38pm 17.0 9.6 9.9 63 3.8 NW 39 59 21 32 1003.4 1003.5 0.0
03/02:30pm 17.7 11.8 9.1 57 4.5 NW 30 48 16 26 1003.0 1003.0 0.0
03/02:08pm 17.6 11.4 9.2 58 4.4 NW 32 50 17 27 1002.9 1002.9 0.0
03/02:00pm 17.6 11.2 9.2 58 4.4 NW 33 50 18 27 1002.8 1002.8 0.0
03/01:30pm 16.8 9.7 9.7 63 3.8 NW 37 57 20 31 1003.4 1003.5 0.0
03/01:09pm 17.5 10.4 9.4 59 4.3 NW 37 61 20 33 1003.4 1003.5 0.0
03/01:00pm 18.0 11.3 8.0 52 5.2 NW 33 46 18 25 1003.2 1003.2 0.0
03/12:41pm 18.2 11.6 7.9 51 5.3 NW 32 50 17 27 1003.5 1003.6 0.0
03/12:30pm 18.5 11.9 7.6 49 5.6 NNW 32 46 17 25 1003.4 1003.5 0.0
03/12:01pm 18.2 11.4 7.6 50 5.4 NW 33 52 18 28 1004.0 1004.1 0.0
03/12:00pm 18.2 11.0 7.6 50 5.5 NW 35 52 19 28 1003.9 1004.0 0.0
03/11:49am 18.2 11.4 7.0 48 5.7 NNW 32 54 17 29 1004.0 1004.1 0.0
03/11:30am 17.0 10.2 7.1 52 5.0 NW 32 46 17 25 1004.5 1004.6 0.0
03/11:11am 17.8 11.5 7.2 50 5.4 NW 30 48 16 26 1004.8 1004.9 0.0
03/11:00am 16.2 9.3 6.6 53 4.8 NNW 32 46 17 25 1004.9 1005.0 0.0
03/10:47am 16.2 9.9 7.4 56 4.4 NW 30 48 16 26 1005.1 1005.2 0.0
03/10:30am 16.1 9.5 7.6 57 4.3 NNW 32 48 17 26 1005.2 1005.3 0.0
03/10:00am 15.5 8.2 7.0 57 4.2 NNW 35 52 19 28 1005.1 1005.2 0.0
03/09:59am 15.5 8.5 6.8 56 4.3 NNW 33 52 18 28 1005.1 1005.2 0.0
03/09:30am 15.5 9.8 6.5 55 4.4 NNW 26 37 14 20 1005.6 1005.7 0.0
03/09:00am 14.3 9.6 6.2 58 3.9 N 20 30 11 16 1006.0 1006.1 0.0
03/08:30am 13.0 8.3 5.9 62 3.4 N 20 30 11 16 1006.4 1006.5 0.0
03/08:00am 12.1 7.3 5.5 64 3.1 N 20 32 11 17 1006.5 1006.6 0.0
03/07:30am 11.7 7.0 5.3 65 3.0 N 19 26 10 14 1006.5 1006.6 0.0
03/07:00am 11.5 6.9 5.4 66 2.9 N 19 26 10 14 1006.5 1006.6 0.0
03/06:30am 11.7 7.0 5.3 65 3.0 NNW 19 28 10 15 1006.9 1006.9 0.0
03/06:00am 11.8 6.9 5.2 64 3.1 N 20 26 11 14 1006.8 1006.8 0.0
03/05:30am 12.2 7.0 5.4 63 3.2 N 22 35 12 19 1007.1 1007.1 0.0
03/05:00am 12.8 8.2 5.5 61 3.5 N 19 26 10 14 1007.1 1007.1 0.0
03/04:30am 13.2 8.6 5.6 60 3.6 N 19 26 10 14 1007.4 1007.5 0.0
03/04:00am 12.7 9.0 6.1 64 3.2 N 15 19 8 10 1007.5 1007.6 0.0
03/03:30am 13.0 8.4 5.4 60 3.6 N 19 24 10 13 1007.6 1007.7 0.0
03/03:00am 13.3 8.5 5.5 59 3.7 N 20 30 11 16 1007.8 1007.9 0.0
03/02:30am 13.3 8.5 5.5 59 3.7 N 20 28 11 15 1008.2 1008.3 0.0
03/02:00am 12.9 8.7 5.6 61 3.5 N 17 22 9 12 1008.9 1009.0 0.0
03/01:30am 13.1 8.2 5.3 59 3.7 N 20 28 11 15 1009.1 1009.2 0.0
03/01:00am 13.6 8.9 5.3 57 3.9 N 19 28 10 15 1009.5 1009.6 0.0
03/12:30am 13.4 8.7 5.3 58 3.8 NNW 19 28 10 15 1009.8 1009.9 0.0
03/12:00am 13.4 8.2 5.3 58 3.8 N 22 32 12 17 1009.8 1009.9 0.0
 
Date/Time
EST
Temp
°C
App
Temp
°C
Dew
Point
Rel
Hum
%
Delta-T
°C
Wind Press
QNH
hPa
Press
MSL
hPa
Rain
since 9 am
mm
Dir
 
Spd
km/h
Gust
km/h
Spd
kts
Gust
kts
02/11:30pm 13.4 8.5 5.3 58 3.8 N 20 30 11 16 1010.1 1010.2 0.0
02/11:00pm 13.8 8.9 5.2 56 4.1 N 20 28 11 15 1010.2 1010.3 0.0
02/10:30pm 14.1 8.7 4.7 53 4.4 N 22 28 12 15 1010.5 1010.6 0.0
02/10:00pm 14.1 9.3 4.9 54 4.3 N 19 28 10 15 1010.8 1010.9 0.0
02/09:30pm 13.8 8.9 5.2 56 4.1 N 20 30 11 16 1011.0 1011.1 0.0
02/09:00pm 13.7 8.8 5.1 56 4.1 N 20 28 11 15 1011.0 1011.1 0.0
02/08:30pm 13.9 9.3 5.5 57 4.0 N 19 28 10 15 1011.3 1011.5 0.0
02/08:00pm 13.9 9.0 5.3 56 4.1 N 20 26 11 14 1011.2 1011.3 0.0
02/07:30pm 14.0 9.2 5.4 56 4.1 N 20 32 11 17 1011.1 1011.2 0.0
02/07:00pm 14.2 9.8 5.0 54 4.4 N 17 26 9 14 1011.1 1011.2 0.0
02/06:30pm 14.7 9.9 4.4 50 4.8 N 19 26 10 14 1010.9 1011.0 0.0
02/06:00pm 15.2 10.7 4.0 47 5.2 N 17 30 9 16 1011.0 1011.1 0.0
02/05:30pm 15.1 10.2 4.2 48 5.1 NNW 19 30 10 16 1011.0 1011.1 0.0
02/05:00pm 15.5 10.4 4.3 47 5.3 NNW 20 32 11 17 1011.2 1011.3 0.0
02/04:30pm 15.7 9.8 4.1 46 5.4 NNW 24 37 13 20 1011.2 1011.3 0.0
02/04:00pm 15.8 10.0 4.2 46 5.5 NNW 24 39 13 21 1011.3 1011.5 0.0
02/03:30pm 15.7 10.8 5.0 49 5.1 NNW 20 32 11 17 1011.6 1011.8 0.0
02/03:00pm 15.4 9.6 4.5 48 5.1 NNW 24 39 13 21 1011.9 1012.0 0.0
02/02:30pm 15.4 10.0 4.5 48 5.1 NNW 22 33 12 18 1012.1 1012.2 0.0
02/02:00pm 15.2 8.2 4.0 47 5.2 NNW 30 39 16 21 1012.1 1012.2 0.0
02/01:30pm 16.4 10.6 4.4 45 5.7 NW 24 35 13 19 1012.2 1012.3 0.0
02/01:00pm 16.0 10.9 6.2 52 4.8 NNW 22 32 12 17 1012.3 1012.4 0.0
02/12:30pm 15.1 10.1 6.4 56 4.3 N 22 35 12 19 1013.1 1013.2 0.0
02/12:00pm 13.8 9.1 7.8 67 3.0 N 22 30 12 16 1013.7 1013.8 0.0
02/11:30am 12.2 8.8 7.5 73 2.3 NNW 15 20 8 11 1014.3 1014.4 0.0
02/11:00am 12.2 9.0 6.7 69 2.7 NNW 13 20 7 11 1014.6 1014.7 0.0
02/10:30am 10.9 8.1 7.0 77 1.9 N 11 15 6 8 1014.6 1014.7 0.0
02/10:00am 9.7 6.8 6.6 81 1.5 N 11 17 6 9 1014.7 1014.8 0.0
02/09:30am 8.7 7.1 6.2 84 1.2 N 4 9 2 5 1014.9 1015.0 0.0
02/09:00am 7.6 6.3 5.9 89 0.8 ENE 2 7 1 4 1015.0 1015.1 0.4
02/08:30am 6.6 5.6 5.7 94 0.4 CALM 0 0 0 0 1015.1 1015.2 0.4
02/08:00am 5.7 4.6 5.0 95 0.3 CALM 0 0 0 0 1015.2 1015.3 0.4
02/07:30am 5.2 4.0 4.6 96 0.3 CALM 0 0 0 0 1014.9 1015.0 0.4
02/07:00am 4.9 3.6 4.3 96 0.3 CALM 0 0 0 0 1014.9 1015.0 0.4
02/06:30am 4.5 2.4 3.9 96 0.3 SSE 4 7 2 4 1014.8 1014.9 0.4
02/06:00am 3.6 2.1 3.0 96 0.2 CALM 0 0 0 0 1014.9 1015.0 0.4
02/05:30am 3.3 1.7 2.7 96 0.2 CALM 0 0 0 0 1015.1 1015.2 0.4
02/05:00am 3.1 1.5 2.4 95 0.3 CALM 0 0 0 0 1015.1 1015.2 0.4
02/04:30am 3.1 1.5 2.4 95 0.3 CALM 0 0 0 0 1015.1 1015.2 0.4
02/04:00am 3.4 1.8 2.7 95 0.3 CALM 0 0 0 0 1015.0 1015.1 0.4
02/03:30am 3.8 2.3 3.1 95 0.3 CALM 0 0 0 0 1015.1 1015.2 0.4
02/03:00am 3.8 2.3 3.1 95 0.3 CALM 0 0 0 0 1015.3 1015.4 0.4
02/02:30am 4.4 3.0 3.7 95 0.3 CALM 0 0 0 0 1015.7 1015.9 0.4
02/02:00am 4.4 3.0 3.7 95 0.3 CALM 0 0 0 0 1015.8 1016.0 0.4
02/01:30am 4.3 2.9 3.4 94 0.4 CALM 0 0 0 0 1016.0 1016.2 0.4
02/01:00am 4.5 3.1 3.6 94 0.4 CALM 0 0 0 0 1016.3 1016.5 0.4
02/12:30am 5.0 3.7 4.1 94 0.4 CALM 0 0 0 0 1016.6 1016.8 0.4
02/12:00am 5.2 3.9 4.2 93 0.4 CALM 0 0 0 0 1017.1 1017.2 0.4
 
Date/Time
EST
Temp
°C
App
Temp
°C
Dew
Point
Rel
Hum
%
Delta-T
°C
Wind Press
QNH
hPa
Press
MSL
hPa
Rain
since 9 am
mm
Dir
 
Spd
km/h
Gust
km/h
Spd
kts
Gust
kts
01/11:30pm 4.9 3.6 3.9 93 0.4 CALM 0 0 0 0 1017.1 1017.2 0.4
01/11:00pm 5.5 4.3 4.5 93 0.4 CALM 0 0 0 0 1017.3 1017.4 0.4
01/10:30pm 5.4 4.1 4.1 91 0.6 CALM 0 0 0 0 1017.3 1017.4 0.4
01/10:00pm 5.8 4.5 4.3 90 0.6 CALM 0 0 0 0 1017.4 1017.5 0.4
01/09:30pm 6.3 5.1 4.6 89 0.7 CALM 0 0 0 0 1017.0 1017.1 0.4
01/09:00pm 6.8 5.7 5.0 88 0.8 CALM 0 0 0 0 1016.7 1016.9 0.4
01/08:30pm 7.5 6.4 5.0 84 1.1 CALM 0 0 0 0 1016.4 1016.6 0.4
01/08:00pm 8.1 6.9 4.7 79 1.5 CALM 0 0 0 0 1016.3 1016.5 0.4
01/07:30pm 10.2 9.1 5.0 70 2.4 CALM 0 6 0 3 1016.2 1016.4 0.4
01/07:00pm 11.5 9.0 4.0 60 3.4 WSW 6 9 3 5 1015.9 1016.1 0.4
01/06:30pm 12.2 9.5 3.9 57 3.8 WNW 7 11 4 6 1015.3 1015.4 0.4
01/06:00pm 12.8 9.0 3.7 54 4.1 WNW 13 19 7 10 1014.9 1015.0 0.4
01/05:30pm 13.4 8.8 3.8 52 4.4 W 17 30 9 16 1014.5 1014.6 0.4
01/05:00pm 14.4 8.4 3.2 47 5.1 W 24 39 13 21 1014.0 1014.1 0.4
01/04:30pm 15.0 9.3 5.0 51 4.8 W 24 37 13 20 1013.5 1013.6 0.4
01/04:00pm 15.1 8.6 4.8 50 4.9 W 28 37 15 20 1013.1 1013.2 0.4
01/03:30pm 15.1 8.1 4.2 48 5.1 W 30 39 16 21 1012.7 1012.8 0.4
01/03:00pm 15.1 8.4 5.6 53 4.6 W 30 41 16 22 1012.5 1012.6 0.4
01/02:30pm 15.3 9.1 6.1 54 4.5 W 28 41 15 22 1012.1 1012.2 0.4
01/02:12pm 14.8 8.5 5.6 54 4.4 W 28 46 15 25 1012.0 1012.1 0.4
01/02:00pm 14.6 8.2 5.4 54 4.4 W 28 39 15 21 1011.9 1012.0 0.4
01/01:30pm 14.6 8.4 6.2 57 4.1 WNW 28 41 15 22 1011.5 1011.7 0.4
01/01:00pm 14.0 7.1 6.4 60 3.7 WNW 32 44 17 24 1011.7 1011.9 0.4
01/12:39pm 14.1 7.9 6.2 59 3.8 WNW 28 52 15 28 1011.6 1011.8 0.4
01/12:30pm 13.9 7.9 7.0 63 3.4 W 28 41 15 22 1011.6 1011.8 0.4
01/12:00pm 13.4 6.3 6.5 63 3.3 W 33 50 18 27 1011.6 1011.8 0.4
01/11:37am 13.2 6.4 6.8 65 3.1 WNW 32 54 17 29 1011.5 1011.7 0.4
01/11:30am 13.4 6.1 7.0 65 3.1 WNW 35 50 19 27 1011.5 1011.7 0.4
01/11:00am 13.1 6.8 7.3 68 2.9 WNW 30 46 16 25 1011.2 1011.3 0.0
01/10:30am 13.0 6.9 8.1 72 2.4 WNW 30 48 16 26 1010.9 1011.0 0.0
01/10:29am 12.9 6.7 7.8 71 2.5 WNW 30 48 16 26 1010.8 1010.9 0.0
01/10:00am 11.8 6.6 8.8 82 1.5 W 26 39 14 21 1010.7 1010.8 0.0
01/09:35am 11.7 6.9 8.9 83 1.4 W 24 41 13 22 1010.4 1010.2 0.0
01/09:30am 11.8 6.2 8.8 82 1.5 WNW 28 41 15 22 1010.3 1010.1 0.0
01/09:23am 11.9 6.7 8.9 82 1.5 WNW 26 43 14 23 1010.2 1010.0 0.0
01/09:00am 12.5 8.1 9.0 79 1.8 WNW 22 32 12 17 1010.0 1009.8 14.4
01/08:30am 12.9 8.0 8.4 74 2.3 WNW 24 35 13 19 1009.8 1009.6 14.2
01/08:05am 12.7 7.0 8.4 75 2.2 WNW 28 46 15 25 1009.3 1009.1 14.2
01/08:00am 12.6 7.7 8.5 76 2.1 WNW 24 35 13 19 1009.3 1009.1 14.2
01/07:30am 12.7 7.5 9.0 78 1.9 NW 26 43 14 23 1008.5 1008.3 14.2
01/07:00am 12.9 7.4 9.0 77 2.0 NW 28 48 15 26 1008.1 1007.9 14.2
01/06:58am 13.0 7.4 8.9 76 2.1 NW 28 48 15 26 1008.0 1007.8 14.2
01/06:30am 13.3 9.4 10.7 84 1.4 NW 22 32 12 17 1007.5 1007.2 14.2
01/06:00am 13.1 9.8 11.5 90 0.9 NW 20 30 11 16 1007.0 1006.7 14.2
01/05:30am 13.1 10.0 11.5 90 0.9 NW 19 26 10 14 1006.9 1006.6 12.0
01/05:00am 13.3 10.7 12.0 92 0.7 NNW 17 30 9 16 1006.5 1006.3 0.0
01/04:30am 12.9 11.1 12.1 95 0.4 NNW 13 20 7 11 1006.1 1005.9 0.0
01/04:00am 12.7 11.5 11.6 93 0.6 NNW 9 13 5 7 1005.7 1005.5 0.0
01/03:30am 12.9 11.4 11.8 93 0.6 NW 11 19 6 10 1006.2 1006.0 0.0
01/03:12am 12.9 10.6 11.8 93 0.6 NW 15 20 8 11 1006.5 1006.3 0.0
01/03:00am 12.8 9.7 11.7 93 0.6 NW 19 32 10 17 1007.0 1006.7 0.0
01/02:30am 12.6 8.9 11.5 93 0.6 WNW 22 32 12 17 1007.4 1007.1 0.0
01/02:07am 13.5 7.0 11.6 88 1.0 W 37 56 20 30 1006.6 1006.4 0.0
01/02:00am 17.2 14.0 14.3 83 1.7 NNW 24 50 13 27 1006.5 1006.3 0.0
01/01:57am 17.4 14.4 14.9 85 1.5 N 24 39 13 21 1005.3 1005.1 0.0
01/01:30am 17.5 14.5 14.8 84 1.6 NE 24 43 13 23 1004.8 1004.6 0.0
01/01:00am 17.0 15.4 15.0 88 1.2 NNE 17 24 9 13 1006.2 1006.0 0.0
01/12:30am 17.2 15.2 15.0 87 1.3 NNE 19 28 10 15 1006.9 1006.6 0.0

Other Formats:

Comma delimited format used in spreadsheet applications
http://www.bom.gov.au/fwo/IDV60801/IDV60801.94855.axf

JavaScript Object Notation format (JSON) in row-major order
http://www.bom.gov.au/fwo/IDV60801/IDV60801.94855.json